createdAt,value
2018-12-27T00:01:14.141Z,99615.91
2018-12-27T00:03:44.088Z,99606.37
2018-12-27T00:06:13.098Z,99602.88
2018-12-27T00:08:42.501Z,99608.84
2018-12-27T00:11:11.485Z,99602.81
2018-12-27T00:13:40.467Z,99600.81
2018-12-27T00:16:09.784Z,99597.67
2018-12-27T00:18:38.745Z,99598.38
2018-12-27T00:21:08.243Z,99592.39
2018-12-27T00:23:37.502Z,99588.52
2018-12-27T00:26:07.295Z,99588.34
2018-12-27T00:28:36.987Z,99584.52
2018-12-27T00:31:06.425Z,99583.45
2018-12-27T00:33:36.428Z,99578.73
2018-12-27T00:36:06.201Z,99576.43
2018-12-27T00:38:35.812Z,99573.56
2018-12-27T00:41:05.198Z,99569.44
2018-12-27T00:43:34.922Z,99563.39
2018-12-27T00:46:04.732Z,99564.94
2018-12-27T00:48:35.385Z,99563.19
2018-12-27T00:51:05.769Z,99561.47
2018-12-27T00:53:35.479Z,99569.23
2018-12-27T00:56:05.175Z,99566.91
2018-12-27T00:58:35.037Z,99570.41
2018-12-27T01:01:05.002Z,99568.36
2018-12-27T01:03:34.760Z,99567.25
2018-12-27T01:06:04.259Z,99570.03
2018-12-27T01:08:34.189Z,99571.82
2018-12-27T01:11:03.428Z,99568.78
2018-12-27T01:13:32.915Z,99569.51
2018-12-27T01:16:02.526Z,99569.03
2018-12-27T01:18:31.770Z,99566.41
2018-12-27T01:21:02.751Z,99568.47
2018-12-27T01:23:32.089Z,99565.71
2018-12-27T01:26:01.755Z,99570.61
2018-12-27T01:28:31.635Z,99571.16
2018-12-27T01:31:01.150Z,99570.81
2018-12-27T01:33:30.673Z,99570.28
2018-12-27T01:36:00.235Z,99565.20
2018-12-27T01:38:29.620Z,99566.64
2018-12-27T01:40:59.134Z,99565.70
2018-12-27T01:43:29.177Z,99569.09
2018-12-27T01:45:59.365Z,99565.03
2018-12-27T01:48:29.310Z,99561.50
2018-12-27T01:50:58.844Z,99558.47
2018-12-27T01:53:28.417Z,99555.61
2018-12-27T01:55:58.260Z,99555.06
2018-12-27T01:58:29.089Z,99553.19
2018-12-27T02:00:59.109Z,99557.17
2018-12-27T02:03:28.665Z,99552.22
2018-12-27T02:05:58.210Z,99549.53
2018-12-27T02:08:27.726Z,99557.52
2018-12-27T02:10:57.421Z,99554.48
2018-12-27T02:13:27.502Z,99554.02
2018-12-27T02:15:57.277Z,99549.20
2018-12-27T02:18:26.678Z,99548.66
2018-12-27T02:20:55.967Z,99545.91
2018-12-27T02:23:25.276Z,99541.58
2018-12-27T02:25:55.078Z,99538.97
2018-12-27T02:28:24.636Z,99541.43
2018-12-27T02:30:54.009Z,99539.38
2018-12-27T02:33:23.902Z,99532.56
2018-12-27T02:35:53.597Z,99529.66
2018-12-27T02:38:22.736Z,99524.97
2018-12-27T02:40:51.904Z,99527.36
2018-12-27T02:43:21.400Z,99526.16
2018-12-27T02:45:50.638Z,99524.78
2018-12-27T02:48:20.108Z,99519.60
2018-12-27T02:50:49.861Z,99518.14
2018-12-27T02:53:19.118Z,99511.56
2018-12-27T02:55:48.550Z,99510.69
2018-12-27T02:58:17.849Z,99506.16
2018-12-27T03:00:48.366Z,99500.23
2018-12-27T03:03:17.839Z,99497.61
2018-12-27T03:05:46.996Z,99498.85
2018-12-27T03:08:16.191Z,99492.41
2018-12-27T03:10:45.799Z,99490.34
2018-12-27T03:13:15.371Z,99496.55
2018-12-27T03:15:45.004Z,99495.43
2018-12-27T03:18:14.234Z,99487.16
2018-12-27T03:20:44.490Z,99485.36
2018-12-27T03:23:13.705Z,99482.59
2018-12-27T03:25:43.265Z,99477.34
2018-12-27T03:28:12.389Z,99477.98
2018-12-27T03:30:41.879Z,99473.11
2018-12-27T03:33:10.994Z,99474.42
2018-12-27T03:35:40.406Z,99471.22
2018-12-27T03:38:09.580Z,99469.30
2018-12-27T03:40:38.830Z,99466.58
2018-12-27T03:43:08.030Z,99465.91
2018-12-27T03:45:37.166Z,99454.17
2018-12-27T03:48:07.428Z,99451.91
2018-12-27T03:50:36.754Z,99458.98
2018-12-27T03:53:06.666Z,99456.98
2018-12-27T03:55:35.947Z,99457.56
2018-12-27T03:58:05.435Z,99459.69
2018-12-27T04:00:34.903Z,99449.56
2018-12-27T04:03:04.824Z,99445.12
2018-12-27T04:05:34.169Z,99447.34
2018-12-27T04:08:04.255Z,99443.61
2018-12-27T04:10:33.496Z,99438.27
2018-12-27T04:13:07.432Z,99436.28
2018-12-27T04:15:36.433Z,99427.66
2018-12-27T04:18:06.611Z,99431.59
2018-12-27T04:20:35.820Z,99427.81
2018-12-27T04:23:05.639Z,99422.98
2018-12-27T04:25:35.080Z,99423.47
2018-12-27T04:28:04.290Z,99425.30
2018-12-27T04:30:33.757Z,99427.79
2018-12-27T04:33:04.261Z,99430.61
2018-12-27T04:35:33.754Z,99431.16
2018-12-27T04:38:03.135Z,99426.65
2018-12-27T04:40:32.144Z,99430.23
2018-12-27T04:43:03.178Z,99431.09
2018-12-27T04:45:32.100Z,99436.33
2018-12-27T04:48:01.338Z,99430.36
2018-12-27T04:50:31.080Z,99432.95
2018-12-27T04:53:00.419Z,99430.72
2018-12-27T04:55:29.396Z,99430.05
2018-12-27T04:57:58.573Z,99430.36
2018-12-27T05:00:27.923Z,99426.78
2018-12-27T05:02:56.923Z,99425.33
2018-12-27T05:05:25.893Z,99433.42
2018-12-27T05:07:55.189Z,99424.27
2018-12-27T05:10:24.236Z,99423.08
2018-12-27T05:12:53.286Z,99426.20
2018-12-27T05:15:22.331Z,99419.13
2018-12-27T05:17:51.662Z,99424.23
2018-12-27T05:20:20.667Z,99425.83
2018-12-27T05:22:49.792Z,99421.09
2018-12-27T05:25:19.344Z,99427.63
2018-12-27T05:27:48.650Z,99430.83
2018-12-27T05:30:17.640Z,99435.47
2018-12-27T05:32:46.834Z,99434.03
2018-12-27T05:35:15.715Z,99434.51
2018-12-27T05:37:44.733Z,99431.92
2018-12-27T05:40:13.840Z,99428.29
2018-12-27T05:42:43.183Z,99429.59
2018-12-27T05:45:12.145Z,99430.05
2018-12-27T05:47:42.431Z,99431.84
2018-12-27T05:50:11.447Z,99436.55
2018-12-27T05:52:40.763Z,99437.98
2018-12-27T05:55:09.719Z,99439.44
2018-12-27T05:57:38.750Z,99435.67
2018-12-27T06:00:08.031Z,99435.38
2018-12-27T06:02:37.039Z,99434.55
2018-12-27T06:05:06.444Z,99429.59
2018-12-27T06:07:35.696Z,99421.91
2018-12-27T06:10:04.839Z,99419.95
2018-12-27T06:12:34.166Z,99417.13
2018-12-27T06:15:03.174Z,99411.95
2018-12-27T06:17:32.814Z,99419.14
2018-12-27T06:20:02.112Z,99418.14
2018-12-27T06:22:31.650Z,99427.38
2018-12-27T06:25:01.075Z,99423.29
2018-12-27T06:27:30.577Z,99432.41
2018-12-27T06:29:59.657Z,99432.70
2018-12-27T06:32:28.576Z,99429.45
2018-12-27T06:34:57.514Z,99429.30
2018-12-27T06:37:26.837Z,99425.84
2018-12-27T06:39:55.834Z,99439.68
2018-12-27T06:42:25.117Z,99438.70
2018-12-27T06:44:54.187Z,99433.52
2018-12-27T06:47:23.561Z,99427.61
2018-12-27T06:49:53.200Z,99429.87
2018-12-27T06:52:22.339Z,99425.86
2018-12-27T06:54:51.335Z,99435.30
2018-12-27T06:57:20.498Z,99434.41
2018-12-27T06:59:49.529Z,99428.27
2018-12-27T07:02:18.900Z,99425.49
2018-12-27T07:04:49.082Z,99420.13
2018-12-27T07:07:18.724Z,99422.22
2018-12-27T07:09:48.047Z,99416.16
2018-12-27T07:12:17.527Z,99423.11
2018-12-27T07:14:46.860Z,99424.30
2018-12-27T07:17:16.250Z,99422.67
2018-12-27T07:19:45.535Z,99428.87
2018-12-27T07:22:14.892Z,99425.00
2018-12-27T07:24:44.546Z,99426.25
2018-12-27T07:27:13.707Z,99433.93
2018-12-27T07:29:43.123Z,99429.97
2018-12-27T07:32:12.350Z,99432.02
2018-12-27T07:34:41.760Z,99435.55
2018-12-27T07:37:11.244Z,99431.59
2018-12-27T07:39:40.277Z,99433.62
2018-12-27T07:42:09.221Z,99436.48
2018-12-27T07:44:38.886Z,99428.63
2018-12-27T07:47:08.381Z,99422.39
2018-12-27T07:49:37.424Z,99420.00
2018-12-27T07:52:06.381Z,99425.99
2018-12-27T07:54:35.351Z,99428.42
2018-12-27T07:57:04.426Z,99422.48
2018-12-27T07:59:34.091Z,99420.93
2018-12-27T08:02:03.432Z,99419.08
2018-12-27T08:04:32.335Z,99418.88
2018-12-27T08:07:01.272Z,99413.67
2018-12-27T08:09:30.581Z,99406.09
2018-12-27T08:11:59.898Z,99412.91
2018-12-27T08:14:28.946Z,99410.23
2018-12-27T08:16:58.323Z,99411.70
2018-12-27T08:19:27.465Z,99417.50
2018-12-27T08:21:56.754Z,99414.95
2018-12-27T08:24:25.817Z,99415.10
2018-12-27T08:26:55.569Z,99417.48
2018-12-27T08:29:24.816Z,99409.75
2018-12-27T08:31:53.835Z,99408.73
2018-12-27T08:34:22.905Z,99408.94
2018-12-27T08:36:52.247Z,99406.58
2018-12-27T08:39:21.157Z,99402.44
2018-12-27T08:41:50.811Z,99407.31
2018-12-27T08:44:19.970Z,99409.51
2018-12-27T08:46:49.612Z,99417.81
2018-12-27T08:49:18.648Z,99418.70
2018-12-27T08:51:47.610Z,99413.08
2018-12-27T08:54:16.610Z,99409.02
2018-12-27T08:56:45.913Z,99411.81
2018-12-27T08:59:14.907Z,99408.56
2018-12-27T09:01:45.036Z,99407.69
2018-12-27T09:04:14.389Z,99410.83
2018-12-27T09:06:43.359Z,99410.09
2018-12-27T09:09:13.105Z,99404.80
2018-12-27T09:11:42.065Z,99410.21
2018-12-27T09:17:40.246Z,99408.55
2018-12-27T09:23:51.134Z,99397.00
2018-12-27T09:30:02.549Z,99395.73
2018-12-27T09:32:31.448Z,99385.02
2018-12-27T09:35:00.590Z,99388.52
2018-12-27T09:37:30.549Z,99390.70
2018-12-27T09:39:59.914Z,99389.88
2018-12-27T09:42:29.217Z,99383.55
2018-12-27T09:49:18.549Z,99379.67
2018-12-27T09:57:04.752Z,99387.23
2018-12-27T09:59:33.770Z,99391.30
2018-12-27T10:02:02.874Z,99386.59
2018-12-27T10:05:33.837Z,99385.81
2018-12-27T10:07:59.682Z,99392.72
2018-12-27T10:10:28.707Z,99379.47
2018-12-27T10:12:57.865Z,99373.88
2018-12-27T10:15:27.475Z,99369.30
2018-12-27T10:17:56.772Z,99371.61
2018-12-27T10:20:26.797Z,99374.88
2018-12-27T10:22:55.785Z,99365.41
2018-12-27T10:25:25.094Z,99367.34
2018-12-27T10:27:55.036Z,99361.98
2018-12-27T10:30:25.022Z,99354.39
2018-12-27T10:32:55.108Z,99356.02
2018-12-27T10:35:24.549Z,99353.97
2018-12-27T10:37:53.961Z,99359.67
2018-12-27T10:40:24.522Z,99355.03
2018-12-27T10:42:53.769Z,99358.08
2018-12-27T10:45:23.069Z,99358.66
2018-12-27T10:47:52.389Z,99350.38
2018-12-27T10:50:22.202Z,99356.02
2018-12-27T10:52:51.493Z,99349.39
2018-12-27T10:55:21.123Z,99347.61
2018-12-27T10:57:50.928Z,99336.16
2018-12-27T11:00:19.887Z,99337.71
2018-12-27T11:02:49.131Z,99334.19
2018-12-27T11:05:18.309Z,99334.73
2018-12-27T11:07:47.592Z,99328.53
2018-12-27T11:10:16.596Z,99309.50
2018-12-27T11:12:45.745Z,99303.75
2018-12-27T11:15:15.519Z,99302.23
2018-12-27T11:17:45.515Z,99297.91
2018-12-27T11:20:14.913Z,99292.50
2018-12-27T11:22:44.453Z,99294.23
2018-12-27T11:25:14.142Z,99285.12
2018-12-27T11:27:43.365Z,99284.76
2018-12-27T11:30:12.742Z,99282.44
2018-12-27T11:32:42.078Z,99276.75
2018-12-27T11:35:11.623Z,99281.29
2018-12-27T11:37:40.594Z,99270.13
2018-12-27T11:40:10.046Z,99276.68
2018-12-27T11:42:39.666Z,99265.49
2018-12-27T11:45:08.949Z,99263.30
2018-12-27T11:47:38.357Z,99261.51
2018-12-27T11:50:07.481Z,99258.30
2018-12-27T11:52:36.755Z,99254.57
2018-12-27T11:55:06.251Z,99253.19
2018-12-27T11:57:35.856Z,99259.31
2018-12-27T12:00:05.608Z,99254.33
2018-12-27T12:02:34.621Z,99252.95
2018-12-27T12:05:03.989Z,99244.19
2018-12-27T12:07:33.256Z,99238.33
2018-12-27T12:10:02.889Z,99240.41
2018-12-27T12:12:32.124Z,99236.13
2018-12-27T12:15:01.789Z,99237.09
2018-12-27T12:17:30.758Z,99233.98
2018-12-27T12:19:59.969Z,99232.59
2018-12-27T12:22:28.965Z,99226.89
2018-12-27T12:24:58.069Z,99225.04
2018-12-27T12:27:27.661Z,99219.81
2018-12-27T12:29:58.316Z,99215.69
2018-12-27T12:32:28.351Z,99214.19
2018-12-27T12:34:57.870Z,99215.12
2018-12-27T12:37:28.695Z,99212.83
2018-12-27T12:39:58.382Z,99215.70
2018-12-27T12:42:32.791Z,99210.59
2018-12-27T12:44:58.828Z,99210.44
2018-12-27T12:47:28.010Z,99212.91
2018-12-27T12:49:57.616Z,99206.77
2018-12-27T12:52:27.231Z,99202.86
2018-12-27T12:54:56.505Z,99194.69
2018-12-27T12:57:25.612Z,99194.59
2018-12-27T12:59:54.998Z,99198.11
2018-12-27T13:02:24.872Z,99204.02
2018-12-27T13:04:54.239Z,99200.94
2018-12-27T13:07:23.661Z,99194.69
2018-12-27T13:09:52.997Z,99193.83
2018-12-27T13:12:22.345Z,99185.77
2018-12-27T13:14:51.637Z,99194.03
2018-12-27T13:17:21.254Z,99191.70
2018-12-27T13:19:50.785Z,99190.06
2018-12-27T13:22:20.274Z,99187.50
2018-12-27T13:24:49.248Z,99178.91
2018-12-27T13:27:18.295Z,99187.66
2018-12-27T13:29:48.169Z,99188.69
2018-12-27T13:32:17.987Z,99182.32
2018-12-27T13:34:47.370Z,99186.30
2018-12-27T13:37:17.083Z,99180.56
2018-12-27T13:39:46.176Z,99181.95
2018-12-27T13:42:15.516Z,99186.69
2018-12-27T13:44:44.896Z,99187.06
2018-12-27T13:47:13.864Z,99188.70
2018-12-27T13:49:42.831Z,99187.38
2018-12-27T13:52:12.023Z,99185.14
2018-12-27T13:54:42.066Z,99188.05
2018-12-27T13:57:14.597Z,99194.81
2018-12-27T13:59:44.001Z,99190.98
2018-12-27T14:02:13.129Z,99193.83
2018-12-27T14:04:43.007Z,99191.84
2018-12-27T14:07:12.422Z,99188.50
2018-12-27T14:09:41.796Z,99188.84
2018-12-27T14:12:11.294Z,99185.45
2018-12-27T14:14:40.734Z,99186.98
2018-12-27T14:17:10.343Z,99192.66
2018-12-27T14:19:40.289Z,99189.76
2018-12-27T14:22:09.482Z,99186.84
2018-12-27T14:24:39.330Z,99182.12
2018-12-27T14:27:09.016Z,99181.30
2018-12-27T14:29:39.285Z,99185.48
2018-12-27T14:32:09.092Z,99182.74
2018-12-27T14:34:38.715Z,99184.26
2018-12-27T14:37:08.166Z,99179.77
2018-12-27T14:39:37.665Z,99190.94
2018-12-27T14:42:07.443Z,99187.36
2018-12-27T14:44:36.872Z,99189.23
2018-12-27T14:47:06.537Z,99194.78
2018-12-27T14:49:35.933Z,99188.09
2018-12-27T14:52:05.349Z,99190.34
2018-12-27T14:54:34.516Z,99194.00
2018-12-27T14:57:03.820Z,99194.99
2018-12-27T14:59:33.111Z,99193.80
2018-12-27T15:02:02.059Z,99192.77
2018-12-27T15:04:31.527Z,99201.73
2018-12-27T15:07:00.544Z,99202.14
2018-12-27T15:09:29.745Z,99203.15
2018-12-27T15:11:59.107Z,99202.59
2018-12-27T15:14:28.432Z,99198.09
2018-12-27T15:16:57.571Z,99196.61
2018-12-27T15:19:26.720Z,99189.48
2018-12-27T15:21:55.807Z,99188.42
2018-12-27T15:24:25.890Z,99192.12
2018-12-27T15:26:55.429Z,99186.92
2018-12-27T15:29:25.082Z,99181.90
2018-12-27T15:31:54.540Z,99184.18
2018-12-27T15:34:23.888Z,99192.98
2018-12-27T15:36:54.491Z,99188.07
2018-12-27T15:39:24.078Z,99185.47
2018-12-27T15:41:53.713Z,99194.16
2018-12-27T15:44:23.366Z,99195.55
2018-12-27T15:46:52.430Z,99193.28
2018-12-27T15:49:21.690Z,99196.36
2018-12-27T15:51:50.698Z,99203.33
2018-12-27T15:54:20.668Z,99197.63
2018-12-27T15:56:49.772Z,99201.91
2018-12-27T15:59:18.938Z,99207.89
2018-12-27T16:01:48.671Z,99206.89
2018-12-27T16:04:18.109Z,99208.59
2018-12-27T16:06:47.404Z,99218.52
2018-12-27T16:09:16.693Z,99217.47
2018-12-27T16:11:45.901Z,99213.80
2018-12-27T16:14:15.219Z,99212.86
2018-12-27T16:16:44.130Z,99223.14
2018-12-27T16:19:13.319Z,99215.41
2018-12-27T16:21:42.609Z,99217.69
2018-12-27T16:24:11.897Z,99224.70
2018-12-27T16:26:41.608Z,99234.79
2018-12-27T16:29:10.883Z,99228.94
2018-12-27T16:31:40.861Z,99235.12
2018-12-27T16:34:10.527Z,99241.83
2018-12-27T16:36:39.750Z,99236.20
2018-12-27T16:39:08.916Z,99232.08
2018-12-27T16:41:38.224Z,99231.80
2018-12-27T16:44:07.259Z,99234.77
2018-12-27T16:46:36.923Z,99230.36
2018-12-27T16:49:06.238Z,99228.99
2018-12-27T16:51:35.838Z,99225.15
2018-12-27T16:54:04.873Z,99227.35
2018-12-27T16:56:33.878Z,99222.19
2018-12-27T16:59:03.139Z,99232.26
2018-12-27T17:01:32.429Z,99227.21
2018-12-27T17:04:01.730Z,99223.14
2018-12-27T17:06:31.162Z,99227.66
2018-12-27T17:09:00.742Z,99225.45
2018-12-27T17:11:29.942Z,99225.48
2018-12-27T17:13:59.241Z,99218.97
2018-12-27T17:16:29.063Z,99229.77
2018-12-27T17:18:58.380Z,99225.31
2018-12-27T17:21:27.677Z,99237.29
2018-12-27T17:23:56.948Z,99237.90
2018-12-27T17:26:26.267Z,99237.94
2018-12-27T17:28:55.616Z,99229.09
2018-12-27T17:31:24.609Z,99230.31
2018-12-27T17:33:53.864Z,99229.85
2018-12-27T17:36:23.058Z,99228.15
2018-12-27T17:38:52.366Z,99228.52
2018-12-27T17:41:21.658Z,99231.21
2018-12-27T17:43:50.945Z,99227.95
2018-12-27T17:46:20.767Z,99234.81
2018-12-27T17:48:50.221Z,99232.88
2018-12-27T17:51:19.138Z,99228.88
2018-12-27T17:53:48.394Z,99227.33
2018-12-27T17:56:18.056Z,99227.11
2018-12-27T17:58:47.895Z,99232.80
2018-12-27T18:01:16.882Z,99231.53
2018-12-27T18:03:46.059Z,99236.45
2018-12-27T18:06:15.036Z,99236.02
2018-12-27T18:08:44.029Z,99231.37
2018-12-27T18:11:13.472Z,99233.40
2018-12-27T18:13:42.750Z,99232.39
2018-12-27T18:16:11.767Z,99230.09
2018-12-27T18:18:41.076Z,99231.86
2018-12-27T18:21:10.750Z,99227.27
2018-12-27T18:23:39.805Z,99228.78
2018-12-27T18:26:09.157Z,99228.94
2018-12-27T18:28:39.027Z,99229.53
2018-12-27T18:31:08.042Z,99234.75
2018-12-27T18:33:37.037Z,99238.04
2018-12-27T18:36:06.007Z,99236.75
2018-12-27T18:38:35.345Z,99234.63
2018-12-27T18:41:04.661Z,99237.77
2018-12-27T18:43:33.972Z,99246.95
2018-12-27T18:46:02.936Z,99248.63
2018-12-27T18:48:32.231Z,99248.85
2018-12-27T18:51:01.189Z,99244.70
2018-12-27T18:53:30.411Z,99244.83
2018-12-27T18:56:00.109Z,99248.63
2018-12-27T18:58:28.995Z,99247.96
2018-12-27T19:00:58.695Z,99251.79
2018-12-27T19:03:28.045Z,99244.41
2018-12-27T19:05:57.349Z,99236.77
2018-12-27T19:08:26.389Z,99241.94
2018-12-27T19:11:31.656Z,99245.87
2018-12-27T19:14:00.873Z,99241.79
2018-12-27T19:16:30.190Z,99242.00
2018-12-27T19:19:00.316Z,99245.52
2018-12-27T19:21:50.050Z,99253.30
2018-12-27T19:24:19.360Z,99253.87
2018-12-27T19:26:48.351Z,99258.77
2018-12-27T19:29:17.432Z,99260.07
2018-12-27T19:31:46.893Z,99263.36
2018-12-27T19:34:16.033Z,99257.28
2018-12-27T19:36:44.975Z,99257.45
2018-12-27T19:39:14.567Z,99265.27
2018-12-27T19:41:43.775Z,99268.76
2018-12-27T19:44:13.062Z,99260.51
2018-12-27T19:46:41.959Z,99259.38
2018-12-27T19:49:10.978Z,99259.61
2018-12-27T19:51:40.961Z,99261.02
2018-12-27T19:54:10.795Z,99263.55
2018-12-27T19:56:40.073Z,99262.06
2018-12-27T19:59:09.401Z,99262.03
2018-12-27T20:01:38.690Z,99271.77
2018-12-27T20:04:07.876Z,99261.67
2018-12-27T20:06:37.141Z,99260.98
2018-12-27T20:09:07.824Z,99259.70
2018-12-27T20:11:37.638Z,99269.25
2018-12-27T20:14:07.165Z,99265.61
2018-12-27T20:16:36.120Z,99269.94
2018-12-27T20:19:05.741Z,99266.39
2018-12-27T20:21:34.644Z,99263.44
2018-12-27T20:24:04.239Z,99267.50
2018-12-27T20:26:33.421Z,99276.43
2018-12-27T20:29:03.060Z,99273.13
2018-12-27T20:31:32.776Z,99272.75
2018-12-27T20:34:02.973Z,99273.41
2018-12-27T20:36:32.378Z,99276.42
2018-12-27T20:39:01.407Z,99267.59
2018-12-27T20:41:33.336Z,99272.84
2018-12-27T20:44:03.042Z,99271.47
2018-12-27T20:46:32.635Z,99268.09
2018-12-27T20:49:02.415Z,99256.98
2018-12-27T20:51:31.396Z,99256.71
2018-12-27T20:54:00.490Z,99260.21
2018-12-27T20:56:30.196Z,99268.67
2018-12-27T20:58:59.598Z,99257.38
2018-12-27T21:01:28.849Z,99258.86
2018-12-27T21:03:58.174Z,99258.24
2018-12-27T21:06:28.185Z,99244.60
2018-12-27T21:08:57.690Z,99246.34
2018-12-27T21:11:26.829Z,99242.75
2018-12-27T21:13:56.285Z,99246.92
2018-12-27T21:16:26.089Z,99255.85
2018-12-27T21:18:55.487Z,99254.30
2018-12-27T21:21:24.791Z,99262.42
2018-12-27T21:23:54.157Z,99257.76
2018-12-27T21:26:23.532Z,99267.67
2018-12-27T21:28:52.701Z,99259.64
2018-12-27T21:31:22.183Z,99255.06
2018-12-27T21:33:51.507Z,99255.55
2018-12-27T21:36:20.713Z,99258.20
2018-12-27T21:38:50.302Z,99249.59
2018-12-27T21:41:19.295Z,99254.05
2018-12-27T21:43:48.510Z,99245.34
2018-12-27T21:46:17.900Z,99253.43
2018-12-27T21:48:47.478Z,99258.27
2018-12-27T21:51:17.152Z,99264.05
2018-12-27T21:53:46.548Z,99265.64
2018-12-27T21:56:15.565Z,99260.71
2018-12-27T21:58:45.568Z,99269.70
2018-12-27T22:01:14.954Z,99261.71
2018-12-27T22:03:44.535Z,99257.83
2018-12-27T22:06:14.317Z,99253.19
2018-12-27T22:08:43.962Z,99259.34
2018-12-27T22:11:13.142Z,99258.24
2018-12-27T22:13:43.083Z,99263.11
2018-12-27T22:16:12.371Z,99268.77
2018-12-27T22:18:41.809Z,99266.53
2018-12-27T22:21:12.079Z,99257.36
2018-12-27T22:23:41.692Z,99264.47
2018-12-27T22:26:11.246Z,99253.53
2018-12-27T22:28:41.026Z,99263.29
2018-12-27T22:31:10.567Z,99261.11
2018-12-27T22:33:40.348Z,99261.11
2018-12-27T22:36:09.746Z,99270.77
2018-12-27T22:38:39.171Z,99268.47
2018-12-27T22:41:08.546Z,99276.52
2018-12-27T22:43:37.660Z,99271.89
2018-12-27T22:46:07.177Z,99275.22
2018-12-27T22:48:36.177Z,99269.94
2018-12-27T22:51:05.337Z,99271.48
2018-12-27T22:53:36.794Z,99268.34
2018-12-27T22:56:06.023Z,99259.78
2018-12-27T22:58:35.204Z,99265.28
2018-12-27T23:01:04.788Z,99274.64
2018-12-27T23:03:34.112Z,99271.81
2018-12-27T23:06:03.932Z,99270.95
2018-12-27T23:08:34.077Z,99268.09
2018-12-27T23:11:03.843Z,99275.95
2018-12-27T23:13:33.690Z,99270.76
2018-12-27T23:16:02.756Z,99269.00
2018-12-27T23:18:32.157Z,99262.09
2018-12-27T23:21:05.199Z,99256.28
2018-12-27T23:23:37.423Z,99249.91
2018-12-27T23:26:06.767Z,99248.28
2018-12-27T23:28:36.609Z,99245.83
2018-12-27T23:31:05.929Z,99241.33
2018-12-27T23:33:35.221Z,99245.80
2018-12-27T23:36:11.949Z,99244.28
2018-12-27T23:38:50.193Z,99241.57
2018-12-27T23:41:16.745Z,99244.11
2018-12-27T23:43:50.813Z,99237.15
2018-12-27T23:46:26.840Z,99230.63
2018-12-27T23:48:58.696Z,99234.88
2018-12-27T23:51:36.003Z,99235.74
2018-12-27T23:54:05.380Z,99243.31
2018-12-27T23:56:35.309Z,99227.46
2018-12-27T23:59:04.684Z,99230.00
